Time;durP1;ratioP1;P1;durP2;ratioP2;P2;SDS_P1;SDS_P2;PMS_P1;PMS_P2;Temp;Humidity;BMP_temperature;BMP_pressure;BME280_temperature;BME280_humidity;BME280_pressure;Samples;Min_cycle;Max_cycle;Signal;HPM_P1;HPM_P2
2022/08/01 00:02:46;;;;;;;10.32;5.93;;;18.40;99.90;;;;;;12427817;28;20062;-37
2022/08/01 00:08:48;;;;;;;8.00;5.40;;;18.30;99.90;;;;;;12433800;28;20049;-39
2022/08/01 00:14:50;;;;;;;9.57;5.32;;;18.30;99.90;;;;;;12429555;28;20133;-35
2022/08/01 00:20:55;;;;;;;9.07;5.32;;;18.30;99.90;;;;;;12436223;28;20383;-35
2022/08/01 00:26:57;;;;;;;8.90;5.13;;;18.20;99.90;;;;;;12431415;28;20049;-39
2022/08/01 00:33:02;;;;;;;8.40;5.07;;;18.20;99.90;;;;;;12438148;28;20049;-35
2022/08/01 00:39:04;;;;;;;13.60;5.50;;;18.30;99.90;;;;;;12442175;28;20099;-35
2022/08/01 00:45:06;;;;;;;6.70;4.88;;;18.30;99.90;;;;;;12427082;28;20054;-35
2022/08/01 00:51:09;;;;;;;7.03;5.03;;;18.20;99.90;;;;;;12425026;28;20070;-35
2022/08/01 00:57:11;;;;;;;8.30;5.30;;;18.20;99.90;;;;;;12432396;28;20527;-35
2022/08/01 01:03:15;;;;;;;7.68;5.10;;;18.30;99.90;;;;;;12384340;28;20221;-40
2022/08/01 01:09:36;;;;;;;10.27;5.60;;;18.30;99.90;;;;;;12434396;28;20050;-40
2022/08/01 01:15:47;;;;;;;8.48;5.50;;;18.20;99.90;;;;;;12429202;28;20050;-41
2022/08/01 01:22:13;;;;;;;10.45;5.57;;;18.30;99.90;;;;;;12434520;28;20054;-39
2022/08/01 01:28:35;;;;;;;10.13;6.15;;;18.20;99.90;;;;;;12426398;28;20053;-35
2022/08/01 01:34:42;;;;;;;7.93;5.55;;;18.20;99.90;;;;;;12378525;28;20121;-35
2022/08/01 01:40:46;;;;;;;9.90;6.53;;;18.20;99.90;;;;;;12425722;28;20535;-35
2022/08/01 01:46:50;;;;;;;;;;;18.10;99.90;;;;;;12421949;28;20050;-35
2022/08/01 01:52:54;;;;;;;14.50;5.70;;;18.10;99.90;;;;;;12414620;28;20352;-35
2022/08/01 01:59:01;;;;;;;7.70;5.13;;;18.00;99.90;;;;;;12438239;28;20115;-39
2022/08/01 02:05:05;;;;;;;10.25;5.85;;;18.00;99.90;;;;;;12417134;28;20046;-35
2022/08/01 02:11:19;;;;;;;;;;;17.90;99.90;;;;;;12430587;28;20144;-38
2022/08/01 02:17:23;;;;;;;9.10;5.77;;;17.90;99.90;;;;;;12438171;28;19991;-35
2022/08/01 02:23:30;;;;;;;11.70;6.40;;;18.00;99.90;;;;;;12434874;28;20050;-35
2022/08/01 02:29:47;;;;;;;8.20;6.03;;;17.90;99.90;;;;;;12439141;28;20526;-35
2022/08/01 02:35:52;;;;;;;8.02;5.10;;;17.80;99.90;;;;;;12431519;28;20053;-41
2022/08/01 02:42:16;;;;;;;5.40;3.70;;;17.90;99.90;;;;;;12422272;28;20494;-36
2022/08/01 02:48:20;;;;;;;5.68;3.90;;;18.00;99.90;;;;;;12437218;28;20058;-35
2022/08/01 02:54:23;;;;;;;6.47;4.25;;;18.00;99.90;;;;;;12414098;28;20042;-39
2022/08/01 03:00:25;;;;;;;10.63;4.43;;;17.90;99.90;;;;;;12429782;28;20054;-39
2022/08/01 03:06:28;;;;;;;7.63;4.13;;;17.80;99.90;;;;;;12434187;28;20058;-40
2022/08/01 03:12:33;;;;;;;4.37;3.37;;;17.90;99.90;;;;;;12432874;28;20084;-40
2022/08/01 03:18:36;;;;;;;5.05;3.30;;;18.00;99.90;;;;;;12423923;28;20376;-39
2022/08/01 03:24:41;;;;;;;5.55;3.78;;;18.10;99.90;;;;;;12405971;28;20616;-39
2022/08/01 03:30:44;;;;;;;5.27;3.43;;;18.00;99.90;;;;;;12428152;28;20057;-35
2022/08/01 03:36:50;;;;;;;5.85;3.67;;;17.90;99.90;;;;;;12438340;28;20200;-40
2022/08/01 03:42:59;;;;;;;5.28;3.45;;;17.90;99.90;;;;;;12418893;28;20042;-36
2022/08/01 03:49:10;;;;;;;5.22;3.58;;;17.90;99.90;;;;;;12439303;28;20490;-39
2022/08/01 03:55:15;;;;;;;5.63;3.60;;;18.00;99.90;;;;;;12444683;28;20406;-39
2022/08/01 04:01:17;;;;;;;6.32;3.67;;;17.90;99.90;;;;;;12431836;28;20133;-35
2022/08/01 04:07:35;;;;;;;5.55;3.83;;;18.00;99.90;;;;;;12428789;28;20521;-41
2022/08/01 04:13:38;;;;;;;5.65;4.03;;;17.90;99.90;;;;;;12426399;28;20054;-39
2022/08/01 04:19:40;;;;;;;5.72;3.97;;;17.80;99.90;;;;;;12432555;28;20043;-35
2022/08/01 04:25:44;;;;;;;6.28;4.70;;;17.90;99.90;;;;;;12435028;28;20104;-41
2022/08/01 04:31:48;;;;;;;5.97;4.25;;;17.80;99.90;;;;;;12439894;28;20054;-35
2022/08/01 04:37:51;;;;;;;8.48;4.80;;;17.80;99.90;;;;;;12428432;28;20594;-35
2022/08/01 04:43:54;;;;;;;10.53;5.10;;;17.70;99.90;;;;;;12412623;28;20066;-40
2022/08/01 04:49:56;;;;;;;6.68;4.57;;;17.70;99.90;;;;;;12421609;28;20097;-35
2022/08/01 04:55:58;;;;;;;7.45;4.50;;;17.80;99.90;;;;;;12441398;28;20125;-35
2022/08/01 05:02:00;;;;;;;6.97;5.07;;;17.80;99.90;;;;;;12428057;28;20058;-35
2022/08/01 05:08:02;;;;;;;9.85;4.82;;;17.80;99.90;;;;;;12429876;28;20041;-35
2022/08/01 05:14:03;;;;;;;7.97;5.07;;;17.90;99.90;;;;;;12432036;28;20084;-39
2022/08/01 05:20:06;;;;;;;6.40;4.60;;;17.80;99.90;;;;;;12443270;28;20115;-35
2022/08/01 05:26:08;;;;;;;7.15;5.10;;;17.80;99.90;;;;;;12399152;28;20446;-39
2022/08/01 05:32:10;;;;;;;7.50;4.80;;;17.90;99.90;;;;;;12431891;28;20057;-39
2022/08/01 05:38:11;;;;;;;8.32;5.38;;;18.00;99.90;;;;;;12427643;28;20108;-36
2022/08/01 05:44:15;;;;;;;;;;;18.00;99.90;;;;;;12424653;28;20070;-39
2022/08/01 05:50:17;;;;;;;9.23;4.20;;;18.00;99.90;;;;;;12423095;28;19929;-36
2022/08/01 05:56:19;;;;;;;5.30;3.75;;;18.00;99.90;;;;;;12435727;28;20050;-35
2022/08/01 06:02:21;;;;;;;6.68;4.13;;;17.90;99.90;;;;;;12425271;28;20141;-35
2022/08/01 06:08:23;;;;;;;6.45;2.85;;;18.20;99.90;;;;;;12420932;28;20050;-40
2022/08/01 06:14:25;;;;;;;4.78;3.35;;;18.00;99.90;;;;;;12428685;28;20077;-35
2022/08/01 06:20:27;;;;;;;5.40;3.50;;;18.20;99.90;;;;;;12429318;28;20058;-39
2022/08/01 06:26:29;;;;;;;4.93;3.50;;;18.20;99.90;;;;;;12433699;28;20498;-35
2022/08/01 06:32:30;;;;;;;3.90;2.92;;;18.20;99.90;;;;;;12425954;28;20051;-40
2022/08/01 06:38:32;;;;;;;3.90;2.40;;;18.20;99.90;;;;;;12412441;28;20050;-41
2022/08/01 06:44:34;;;;;;;3.78;2.20;;;18.00;99.90;;;;;;12413679;28;20050;-39
2022/08/01 06:50:36;;;;;;;2.80;1.63;;;18.20;99.90;;;;;;12420666;28;20054;-39
2022/08/01 06:56:39;;;;;;;4.70;1.90;;;18.20;99.90;;;;;;12431642;28;20448;-41
2022/08/01 07:02:41;;;;;;;4.25;1.80;;;18.30;99.90;;;;;;12437129;28;20673;-39
2022/08/01 07:08:43;;;;;;;2.38;1.65;;;18.40;99.90;;;;;;12439116;28;20054;-39
2022/08/01 07:14:45;;;;;;;3.67;2.10;;;18.40;99.90;;;;;;12434526;28;20050;-39
2022/08/01 07:20:46;;;;;;;4.45;2.03;;;18.30;99.90;;;;;;12425496;28;20197;-39
2022/08/01 07:26:54;;;;;;;4.28;1.85;;;18.50;99.90;;;;;;12419088;28;20061;-40
2022/08/01 07:32:57;;;;;;;2.60;1.73;;;18.70;99.90;;;;;;12440132;28;20482;-35
2022/08/01 07:38:58;;;;;;;3.53;1.70;;;18.70;99.90;;;;;;12419940;28;20402;-40
2022/08/01 07:45:01;;;;;;;2.60;1.80;;;18.80;99.90;;;;;;12435380;28;20422;-40
2022/08/01 07:51:03;;;;;;;2.67;1.70;;;18.70;99.90;;;;;;12443033;28;20057;-40
2022/08/01 07:57:05;;;;;;;4.43;1.70;;;18.70;99.90;;;;;;12431530;28;20058;-35
2022/08/01 08:03:07;;;;;;;1.95;1.30;;;18.60;99.90;;;;;;12433768;28;20163;-35
2022/08/01 08:09:09;;;;;;;2.75;1.27;;;18.60;99.90;;;;;;12449632;28;20140;-35
2022/08/01 08:15:11;;;;;;;3.40;0.90;;;18.60;99.90;;;;;;12438568;28;20057;-36
2022/08/01 08:21:13;;;;;;;1.95;1.00;;;18.60;99.90;;;;;;12436451;28;20065;-35
2022/08/01 08:27:15;;;;;;;1.65;0.93;;;18.60;99.90;;;;;;12428334;28;20185;-36
2022/08/01 08:33:19;;;;;;;1.65;0.75;;;18.60;99.90;;;;;;12415244;28;20046;-35
2022/08/01 08:39:22;;;;;;;2.92;0.60;;;18.60;99.90;;;;;;12424716;28;20046;-35
2022/08/01 08:45:24;;;;;;;2.58;0.90;;;18.60;99.90;;;;;;12435502;28;20053;-35
2022/08/01 08:51:49;;;;;;;3.40;0.80;;;18.50;99.90;;;;;;12426722;28;20061;-35
2022/08/01 08:57:52;;;;;;;2.95;0.90;;;18.60;99.90;;;;;;12419989;28;20104;-35
2022/08/01 09:03:54;;;;;;;1.10;0.77;;;18.60;99.90;;;;;;12413117;28;20062;-35
2022/08/01 09:09:56;;;;;;;2.17;0.90;;;18.80;99.90;;;;;;12430730;28;20079;-39
2022/08/01 09:16:00;;;;;;;4.72;1.10;;;18.90;99.90;;;;;;12428081;28;20060;-35
2022/08/01 09:22:04;;;;;;;2.05;1.02;;;19.30;99.90;;;;;;12420619;28;20453;-39
2022/08/01 09:28:07;;;;;;;2.50;1.60;;;19.20;99.90;;;;;;12422067;28;20054;-35
2022/08/01 09:34:09;;;;;;;2.38;0.95;;;19.30;99.90;;;;;;12416758;28;20049;-35
2022/08/01 09:40:11;;;;;;;2.60;0.98;;;19.40;99.90;;;;;;12423748;28;20046;-39
2022/08/01 09:46:13;;;;;;;4.63;1.10;;;19.60;99.90;;;;;;12428259;28;20046;-36
2022/08/01 09:52:18;;;;;;;1.50;0.90;;;19.40;99.90;;;;;;12421988;28;20095;-35
2022/08/01 09:58:20;;;;;;;1.75;1.00;;;19.40;99.90;;;;;;12408913;28;20457;-41
2022/08/01 10:04:24;;;;;;;2.75;1.30;;;19.40;99.90;;;;;;12422325;28;20103;-40
2022/08/01 10:10:27;;;;;;;5.80;1.67;;;19.60;99.90;;;;;;12412438;28;20049;-40
2022/08/01 10:16:35;;;;;;;3.85;1.75;;;19.60;99.90;;;;;;12420968;28;20807;-35
2022/08/01 10:22:40;;;;;;;3.08;2.42;;;19.60;99.90;;;;;;12412770;28;20087;-35
2022/08/01 10:28:44;;;;;;;6.60;3.57;;;19.80;99.90;;;;;;12420627;28;20099;-35
2022/08/01 10:34:48;;;;;;;5.72;3.85;;;20.00;99.90;;;;;;12424837;28;20136;-39
2022/08/01 10:40:51;;;;;;;;;;;20.20;99.90;;;;;;12413594;28;20053;-36
2022/08/01 10:46:59;;;;;;;5.00;2.83;;;20.20;99.90;;;;;;12427891;28;20297;-39
2022/08/01 10:53:12;;;;;;;4.47;3.10;;;20.30;99.90;;;;;;12430079;28;20046;-35
2022/08/01 10:59:22;;;;;;;5.97;2.97;;;20.50;99.90;;;;;;12432084;28;20050;-35
2022/08/01 11:05:51;;;;;;;3.33;2.70;;;21.10;99.90;;;;;;12423387;28;20039;-39
2022/08/01 11:12:09;;;;;;;5.93;2.88;;;21.00;99.90;;;;;;12420088;28;20046;-40
2022/08/01 11:18:27;;;;;;;4.93;2.20;;;20.80;99.90;;;;;;12416376;28;20049;-36
2022/08/01 11:24:47;;;;;;;3.33;2.10;;;20.40;99.90;;;;;;12415018;28;20061;-39
2022/08/01 11:31:17;;;;;;;4.32;2.72;;;20.40;99.90;;;;;;12431446;28;20058;-40
2022/08/01 11:37:26;;;;;;;3.92;1.80;;;20.50;99.90;;;;;;12419329;28;20049;-35
2022/08/01 11:43:31;;;;;;;5.40;1.85;;;20.80;99.90;;;;;;12440912;28;20062;-36
2022/08/01 11:49:47;;;;;;;4.32;1.83;;;20.70;99.90;;;;;;12430463;28;20109;-35
2022/08/01 11:55:52;;;;;;;4.75;1.90;;;20.70;99.90;;;;;;12439155;28;20049;-40
2022/08/01 12:01:54;;;;;;;4.40;1.92;;;20.60;99.90;;;;;;12427981;28;20045;-35
2022/08/01 12:07:57;;;;;;;4.82;2.10;;;20.70;99.90;;;;;;12431516;28;20122;-39
2022/08/01 12:13:59;;;;;;;5.23;1.70;;;20.90;99.90;;;;;;12420730;28;20119;-35
2022/08/01 12:20:03;;;;;;;6.47;1.95;;;21.00;99.90;;;;;;12434578;28;20567;-40
2022/08/01 12:26:05;;;;;;;4.25;1.90;;;21.10;99.90;;;;;;12421210;28;20502;-36
2022/08/01 12:32:33;;;;;;;4.68;2.17;;;20.90;99.90;;;;;;12425313;28;20100;-35
2022/08/01 12:38:36;;;;;;;5.35;2.30;;;20.60;99.90;;;;;;12423588;28;20042;-39
2022/08/01 12:44:40;;;;;;;5.28;2.50;;;20.60;99.90;;;;;;12419259;28;20140;-39
2022/08/01 12:50:47;;;;;;;4.30;2.53;;;20.60;99.90;;;;;;12431474;28;20502;-41
2022/08/01 12:56:49;;;;;;;5.18;2.10;;;20.60;99.90;;;;;;12409799;28;20050;-36
2022/08/01 13:03:05;;;;;;;5.18;2.20;;;20.40;99.90;;;;;;12440991;28;20505;-35
2022/08/01 13:09:08;;;;;;;8.90;2.25;;;20.30;99.90;;;;;;12413504;28;20390;-40
2022/08/01 13:15:17;;;;;;;;;;;20.20;99.90;;;;;;12414206;28;20081;-39
2022/08/01 13:21:20;;;;;;;4.40;2.20;;;20.20;99.90;;;;;;12422906;28;19971;-40
2022/08/01 13:27:23;;;;;;;6.18;2.22;;;20.30;99.90;;;;;;12419832;28;20136;-40
2022/08/01 13:33:27;;;;;;;4.88;2.10;;;20.50;99.90;;;;;;12420684;28;20046;-35
2022/08/01 13:39:47;;;;;;;5.20;2.10;;;20.40;99.90;;;;;;12428358;28;20133;-35
2022/08/01 13:45:48;;;;;;;5.25;2.00;;;20.40;99.90;;;;;;12413967;28;20050;-36
2022/08/01 13:51:51;;;;;;;9.07;2.72;;;20.30;99.90;;;;;;12424119;28;20058;-40
2022/08/01 13:57:52;;;;;;;5.63;2.03;;;20.30;99.90;;;;;;12432925;28;20219;-35
2022/08/01 14:03:54;;;;;;;6.63;2.20;;;20.40;99.90;;;;;;12424552;28;20057;-39
2022/08/01 14:09:56;;;;;;;7.20;2.22;;;20.40;99.90;;;;;;12411332;28;20107;-39
2022/08/01 14:16:18;;;;;;;8.48;2.50;;;20.40;99.90;;;;;;12432445;28;20073;-40
2022/08/01 14:22:20;;;;;;;6.85;2.53;;;20.30;99.90;;;;;;12415968;28;20046;-39
2022/08/01 14:28:23;;;;;;;6.95;2.33;;;20.20;99.90;;;;;;12404038;28;20061;-39
2022/08/01 14:34:25;;;;;;;7.38;2.88;;;20.10;99.90;;;;;;12418040;28;20089;-40
2022/08/01 14:40:27;;;;;;;5.32;2.40;;;20.20;99.90;;;;;;12434650;28;20128;-35
2022/08/01 14:46:28;;;;;;;6.50;2.28;;;20.30;99.90;;;;;;12423907;28;20437;-35
2022/08/01 14:52:35;;;;;;;10.32;2.58;;;20.30;99.90;;;;;;12428913;28;20077;-35
2022/08/01 14:58:37;;;;;;;6.50;2.10;;;20.30;99.90;;;;;;12434857;28;20188;-40
2022/08/01 15:04:39;;;;;;;5.90;2.15;;;20.30;99.90;;;;;;12422322;28;20050;-35
2022/08/01 15:10:41;;;;;;;6.90;2.20;;;20.30;99.90;;;;;;12414804;28;20092;-35
2022/08/01 15:16:42;;;;;;;10.30;2.25;;;20.40;99.90;;;;;;12430902;28;20046;-40
2022/08/01 15:22:44;;;;;;;7.43;2.17;;;20.50;99.90;;;;;;12439438;28;20054;-39
2022/08/01 15:28:46;;;;;;;10.75;2.30;;;20.60;99.90;;;;;;12431455;28;20103;-40
2022/08/01 15:34:48;;;;;;;7.05;2.40;;;20.80;99.90;;;;;;12448419;28;20065;-39
2022/08/01 15:40:50;;;;;;;6.97;1.88;;;20.90;99.90;;;;;;12438769;28;20172;-35
2022/08/01 15:46:51;;;;;;;7.60;2.17;;;20.90;99.90;;;;;;12430216;28;20046;-35
2022/08/01 15:52:53;;;;;;;9.20;2.17;;;21.00;99.90;;;;;;12445765;23;20561;-83
2022/08/01 15:58:56;;;;;;;7.90;2.05;;;21.00;99.90;;;;;;12413586;28;20050;-84
2022/08/01 16:04:58;;;;;;;9.40;2.00;;;20.90;99.90;;;;;;12425615;28;20520;-83
2022/08/01 16:11:00;;;;;;;7.90;2.00;;;20.90;99.90;;;;;;12403623;28;20630;-84
2022/08/01 16:17:01;;;;;;;7.57;2.08;;;20.80;99.90;;;;;;12406434;28;20395;-83
2022/08/01 16:23:03;;;;;;;10.20;2.28;;;20.90;99.90;;;;;;12405785;28;20092;-84
2022/08/01 16:29:05;;;;;;;5.78;1.75;;;21.30;99.90;;;;;;12422907;28;20129;-84
2022/08/01 16:35:08;;;;;;;9.45;1.80;;;21.20;99.90;;;;;;12425536;28;20082;-84
2022/08/01 16:41:10;;;;;;;10.07;2.58;;;20.90;99.90;;;;;;12408908;28;20568;-84
2022/08/01 16:47:21;;;;;;;9.93;2.47;;;20.90;99.90;;;;;;12409940;28;20057;-84
2022/08/01 16:53:22;;;;;;;9.07;2.10;;;21.40;99.90;;;;;;12427839;28;20184;-86
2022/08/01 16:59:25;;;;;;;7.82;1.73;;;21.70;99.90;;;;;;12425952;28;20477;-84
2022/08/01 17:05:27;;;;;;;7.95;2.25;;;21.60;99.90;;;;;;12415698;28;20087;-83
2022/08/01 17:11:29;;;;;;;8.20;1.83;;;21.20;99.90;;;;;;12416083;28;20045;-84
2022/08/01 17:17:31;;;;;;;8.73;1.67;;;21.20;99.90;;;;;;12426862;28;20050;-84
2022/08/01 17:23:34;;;;;;;8.90;2.42;;;21.50;99.90;;;;;;12408979;28;20208;-85
2022/08/01 17:29:38;;;;;;;6.23;1.80;;;21.70;99.90;;;;;;12397005;28;20093;-84
2022/08/01 17:35:45;;;;;;;4.47;1.38;;;21.80;99.90;;;;;;12418434;28;20660;-84
2022/08/01 17:41:46;;;;;;;4.05;1.48;;;21.80;99.90;;;;;;12432922;28;20038;-84
2022/08/01 17:47:48;;;;;;;6.15;1.70;;;22.00;99.90;;;;;;12434152;28;20161;-84
2022/08/01 17:53:51;;;;;;;8.95;1.67;;;21.80;99.90;;;;;;12409039;28;20046;-84
2022/08/01 17:59:58;;;;;;;7.72;1.48;;;21.50;99.90;;;;;;12416621;28;20063;-84
2022/08/01 18:06:01;;;;;;;8.37;1.90;;;21.80;99.90;;;;;;12399569;28;20057;-84
2022/08/01 18:12:04;;;;;;;5.05;1.52;;;22.00;99.90;;;;;;12428626;28;20085;-84
2022/08/01 18:18:12;;;;;;;3.50;1.40;;;21.90;99.90;;;;;;12410772;28;20457;-83
2022/08/01 18:24:20;;;;;;;6.82;1.85;;;21.50;99.90;;;;;;12408041;28;20046;-83
2022/08/01 18:30:22;;;;;;;6.63;1.67;;;21.10;99.90;;;;;;12408282;28;20417;-84
2022/08/01 18:36:26;;;;;;;4.13;1.38;;;20.80;99.90;;;;;;12412982;28;20452;-84
2022/08/01 18:42:34;;;;;;;4.05;1.40;;;20.50;99.90;;;;;;12402808;28;20182;-84
2022/08/01 18:48:36;;;;;;;7.40;1.98;;;20.30;99.90;;;;;;12412951;28;20100;-84
2022/08/01 18:54:38;;;;;;;7.28;1.50;;;20.20;99.90;;;;;;12430647;28;20050;-84
2022/08/01 19:00:41;;;;;;;4.57;1.30;;;20.00;99.90;;;;;;12409060;28;20092;-84
2022/08/01 19:06:42;;;;;;;5.53;1.75;;;19.80;99.90;;;;;;12395329;28;20050;-84
2022/08/01 19:12:48;;;;;;;5.22;1.48;;;19.70;99.90;;;;;;12446017;28;20069;-84
2022/08/01 19:18:50;;;;;;;7.60;1.75;;;19.50;99.90;;;;;;12406725;28;20049;-84
2022/08/01 19:24:52;;;;;;;9.13;2.42;;;19.50;99.90;;;;;;12412553;28;20058;-84
2022/08/01 19:30:56;;;;;;;23.85;8.98;;;19.40;99.90;;;;;;12416040;28;20398;-84
2022/08/01 19:36:58;;;;;;;5.18;1.70;;;19.40;99.90;;;;;;12408549;28;20054;-84
2022/08/01 19:43:01;;;;;;;5.43;1.45;;;19.40;99.90;;;;;;12406652;28;20137;-84
2022/08/01 19:49:03;;;;;;;8.90;2.17;;;19.30;99.90;;;;;;12425131;28;20490;-84
2022/08/01 19:55:06;;;;;;;6.05;1.45;;;19.30;99.90;;;;;;12404951;28;20421;-84
2022/08/01 20:01:14;;;;;;;7.45;1.98;;;19.20;99.90;;;;;;12407172;28;20049;-84
2022/08/01 20:07:16;;;;;;;9.50;2.25;;;19.10;99.90;;;;;;12415130;28;20057;-84
2022/08/01 20:13:19;;;;;;;6.63;2.20;;;19.10;99.90;;;;;;12432600;28;20148;-84
2022/08/01 20:19:25;;;;;;;8.77;1.80;;;19.00;99.90;;;;;;12420354;28;20060;-83
2022/08/01 20:25:28;;;;;;;4.60;1.80;;;18.90;99.90;;;;;;12422954;28;20096;-84
2022/08/01 20:31:43;;;;;;;4.63;1.40;;;18.80;99.90;;;;;;12420490;28;20051;-84
2022/08/01 20:37:47;;;;;;;6.25;1.77;;;18.80;99.90;;;;;;12413519;28;20054;-84
2022/08/01 20:44:08;;;;;;;8.65;1.75;;;19.00;99.90;;;;;;12423841;28;20066;-83
2022/08/01 20:57:10;;;;;;;8.55;1.80;;;18.90;99.90;;;;;;12443059;28;20057;-84
2022/08/01 21:03:21;;;;;;;7.50;1.63;;;18.80;99.90;;;;;;12418423;28;20495;-84
2022/08/01 21:09:26;;;;;;;8.02;2.20;;;18.60;99.90;;;;;;12415780;28;20103;-83
2022/08/01 21:15:50;;;;;;;6.90;1.85;;;18.30;99.90;;;;;;12424578;28;20045;-84
2022/08/01 21:22:43;;;;;;;14.52;2.53;;;18.10;99.90;;;;;;12433083;28;20050;-84
2022/08/01 21:28:47;;;;;;;9.60;2.37;;;17.90;99.90;;;;;;12429986;28;20092;-84
2022/08/01 21:34:55;;;;;;;6.22;1.90;;;17.80;99.90;;;;;;12420792;28;20046;-83
2022/08/01 21:41:02;;;;;;;9.52;2.20;;;17.80;99.90;;;;;;12431441;28;20128;-84
2022/08/01 21:47:05;;;;;;;9.27;2.40;;;17.80;99.90;;;;;;12412656;28;20181;-83
2022/08/01 21:53:22;;;;;;;8.60;1.98;;;17.80;99.90;;;;;;12415522;28;20572;-83
2022/08/01 21:59:38;;;;;;;11.10;2.20;;;17.80;99.90;;;;;;12419027;28;20046;-83
2022/08/01 22:05:45;;;;;;;7.43;2.00;;;17.70;99.90;;;;;;12419181;28;20140;-84
2022/08/01 22:11:53;;;;;;;11.00;2.10;;;17.40;99.90;;;;;;12403626;28;20457;-83
2022/08/01 22:18:03;;;;;;;5.38;1.90;;;17.30;99.90;;;;;;12409075;28;20553;-83
2022/08/01 22:24:06;;;;;;;10.33;2.57;;;17.30;99.90;;;;;;12417715;28;20509;-84
2022/08/01 22:30:11;;;;;;;10.40;1.92;;;17.30;99.90;;;;;;12417987;28;20225;-83
2022/08/01 22:36:13;;;;;;;10.00;2.10;;;17.30;99.90;;;;;;12419870;28;20046;-83
2022/08/01 22:42:15;;;;;;;8.68;2.17;;;17.30;99.90;;;;;;12406910;28;20572;-83
2022/08/01 22:48:22;;;;;;;8.93;2.30;;;17.20;99.90;;;;;;12404647;28;20181;-83
2022/08/01 22:54:56;;;;;;;7.18;2.03;;;17.20;99.90;;;;;;12354204;28;20050;-83
2022/08/01 23:01:01;;;;;;;11.20;3.42;;;17.10;99.90;;;;;;12344631;28;20086;-83
2022/08/01 23:07:04;;;;;;;8.35;2.75;;;17.10;99.90;;;;;;12340219;28;20137;-83
2022/08/01 23:13:06;;;;;;;7.47;2.50;;;17.00;99.90;;;;;;12341243;28;20051;-83
2022/08/01 23:19:09;;;;;;;5.13;2.13;;;16.90;99.90;;;;;;12339867;28;20534;-83
2022/08/01 23:25:14;;;;;;;7.63;2.20;;;16.90;99.90;;;;;;12337611;28;20054;-83
2022/08/01 23:31:16;;;;;;;10.77;1.90;;;16.80;99.90;;;;;;12336052;28;20146;-83
2022/08/01 23:37:18;;;;;;;10.75;2.60;;;16.60;99.90;;;;;;12345852;28;20047;-84
2022/08/01 23:43:19;;;;;;;9.50;2.22;;;16.60;99.90;;;;;;12344450;28;20043;-83
2022/08/01 23:49:21;;;;;;;11.15;2.17;;;16.60;99.90;;;;;;12342990;28;20105;-83
2022/08/01 23:55:23;;;;;;;5.90;1.90;;;16.50;99.90;;;;;;12445164;28;20054;-83
